TimeEST,TemperatureF,Dew PointF,Humidity,Sea Level PressureIn,VisibilityMPH,Wind Direction,Wind SpeedMPH,Gust SpeedMPH,PrecipitationIn,Events,Conditions,WindDirDegrees,DateUTC
12:15 AM,15.6,11.3,83,29.98,10.0,Calm,Calm,-,N/A,,Clear,0,2012-12-30 05:15:00
12:35 AM,14.2,10.6,86,29.98,10.0,Calm,Calm,-,N/A,,Clear,0,2012-12-30 05:35:00
12:55 AM,12.6,10.2,90,29.98,10.0,Calm,Calm,-,N/A,,Clear,0,2012-12-30 05:55:00
1:15 AM,10.9,9.1,92,29.99,10.0,Calm,Calm,-,N/A,,Clear,0,2012-12-30 06:15:00
1:55 AM,8.2,6.4,92,30.00,10.0,Calm,Calm,-,N/A,,Clear,0,2012-12-30 06:55:00
2:15 AM,8.4,7.0,94,30.00,10.0,Calm,Calm,-,N/A,,Clear,0,2012-12-30 07:15:00
2:35 AM,7.0,5.4,93,30.01,10.0,Calm,Calm,-,N/A,,Scattered Clouds,0,2012-12-30 07:35:00
2:55 AM,7.9,6.3,93,30.03,10.0,Calm,Calm,-,N/A,,Overcast,0,2012-12-30 07:55:00
3:15 AM,9.3,7.5,92,30.04,10.0,Calm,Calm,-,N/A,,Overcast,0,2012-12-30 08:15:00
3:35 AM,9.3,7.3,92,30.04,10.0,Calm,Calm,-,N/A,,Overcast,0,2012-12-30 08:35:00
3:56 AM,9.3,7.5,92,30.05,10.0,Calm,Calm,-,N/A,,Overcast,0,2012-12-30 08:56:00
4:15 AM,10.6,8.6,92,30.04,10.0,Calm,Calm,-,N/A,,Overcast,0,2012-12-30 09:15:00
4:35 AM,11.8,10.0,92,30.05,10.0,Calm,Calm,-,N/A,,Overcast,0,2012-12-30 09:35:00
4:56 AM,11.7,9.5,91,30.05,10.0,Calm,Calm,-,N/A,,Overcast,0,2012-12-30 09:56:00
5:15 AM,9.1,7.0,91,30.05,10.0,Calm,Calm,-,N/A,,Overcast,0,2012-12-30 10:15:00
5:35 AM,8.1,6.3,92,30.05,10.0,Calm,Calm,-,N/A,,Scattered Clouds,0,2012-12-30 10:35:00
5:56 AM,8.4,6.8,93,30.06,10.0,Calm,Calm,-,N/A,,Scattered Clouds,0,2012-12-30 10:56:00
6:15 AM,8.2,6.3,92,30.07,10.0,Calm,Calm,-,N/A,,Scattered Clouds,0,2012-12-30 11:15:00
6:35 AM,6.8,5.0,92,30.07,10.0,Calm,Calm,-,N/A,,Scattered Clouds,0,2012-12-30 11:35:00
7:15 AM,7.9,5.7,91,30.08,10.0,Calm,Calm,-,N/A,,Overcast,0,2012-12-30 12:15:00
7:35 AM,9.1,7.3,92,30.09,10.0,Calm,Calm,-,N/A,,Overcast,0,2012-12-30 12:35:00
7:55 AM,10.8,9.0,92,30.10,10.0,Calm,Calm,-,N/A,,Overcast,0,2012-12-30 12:55:00
8:15 AM,11.5,9.5,92,30.10,10.0,Calm,Calm,-,N/A,Snow,Light Snow,0,2012-12-30 13:15:00
8:35 AM,12.6,10.4,91,30.11,10.0,Calm,Calm,-,N/A,Snow,Light Snow,0,2012-12-30 13:35:00
8:55 AM,13.5,11.7,93,30.11,4.0,Calm,Calm,-,N/A,Snow,Light Snow,0,2012-12-30 13:55:00
9:15 AM,14.7,12.9,93,30.11,2.0,Calm,Calm,-,N/A,Snow,Light Snow,0,2012-12-30 14:15:00
9:35 AM,15.6,14.0,93,30.10,5.0,Calm,Calm,-,N/A,Snow,Light Snow,0,2012-12-30 14:35:00
9:55 AM,16.7,14.9,93,30.11,4.0,Calm,Calm,-,N/A,Snow,Light Snow,0,2012-12-30 14:55:00
10:16 AM,19.0,17.4,93,30.12,2.0,Calm,Calm,-,N/A,Snow,Light Snow,0,2012-12-30 15:16:00
10:35 AM,20.1,19.0,96,30.13,1.2,Calm,Calm,-,N/A,Snow,Light Snow,0,2012-12-30 15:35:00
10:55 AM,22.1,20.3,93,30.13,7.0,Calm,Calm,-,N/A,Snow,Light Snow,0,2012-12-30 15:55:00
11:16 AM,24.3,19.8,83,30.13,10.0,Calm,Calm,-,N/A,,Overcast,0,2012-12-30 16:16:00
11:35 AM,24.4,18.5,78,30.12,10.0,West,5.8,-,N/A,,Overcast,280,2012-12-30 16:35:00
11:55 AM,24.8,17.8,75,30.12,10.0,West,5.8,-,N/A,,Overcast,270,2012-12-30 16:55:00
12:15 PM,25.0,16.9,71,30.11,10.0,West,4.6,-,N/A,,Overcast,270,2012-12-30 17:15:00
12:35 PM,25.3,17.6,72,30.09,10.0,WSW,4.6,-,N/A,,Overcast,240,2012-12-30 17:35:00
12:55 PM,26.2,18.3,72,30.09,10.0,WSW,3.5,-,N/A,,Mostly Cloudy,250,2012-12-30 17:55:00
1:15 PM,27.3,19.4,72,30.08,10.0,WSW,3.5,-,N/A,,Scattered Clouds,240,2012-12-30 18:15:00
1:35 PM,28.0,20.1,72,30.08,10.0,WSW,8.1,-,N/A,,Clear,250,2012-12-30 18:35:00
1:55 PM,28.6,20.3,71,30.08,10.0,WSW,9.2,20.7,N/A,,Clear,250,2012-12-30 18:55:00
2:15 PM,29.1,20.8,71,30.08,10.0,WSW,5.8,-,N/A,,Scattered Clouds,250,2012-12-30 19:15:00
2:36 PM,28.8,20.8,72,30.08,10.0,WSW,6.9,-,N/A,,Scattered Clouds,250,2012-12-30 19:36:00
2:55 PM,28.2,20.3,72,30.08,10.0,WSW,6.9,-,N/A,,Mostly Cloudy,250,2012-12-30 19:55:00
3:15 PM,27.5,20.7,75,30.08,10.0,WSW,5.8,-,N/A,,Mostly Cloudy,240,2012-12-30 20:15:00
3:36 PM,27.9,20.3,73,30.08,10.0,West,5.8,-,N/A,,Mostly Cloudy,270,2012-12-30 20:36:00
3:55 PM,27.9,20.7,74,30.08,10.0,West,4.6,-,N/A,,Overcast,270,2012-12-30 20:55:00
4:15 PM,27.5,20.7,75,30.08,10.0,WSW,4.6,-,N/A,,Overcast,250,2012-12-30 21:15:00
4:35 PM,27.5,21.0,77,30.08,10.0,WSW,5.8,-,N/A,,Overcast,250,2012-12-30 21:35:00
4:55 PM,27.5,21.2,77,30.07,10.0,WSW,3.5,-,N/A,,Overcast,250,2012-12-30 21:55:00
5:15 PM,27.3,21.6,79,30.06,10.0,Calm,Calm,-,N/A,,Overcast,0,2012-12-30 22:15:00
5:40 PM,27.5,22.8,83,30.06,10.0,SW,4.6,-,N/A,,Overcast,230,2012-12-30 22:40:00
6:00 PM,28.0,22.5,80,30.06,10.0,WSW,8.1,-,N/A,,Overcast,250,2012-12-30 23:00:00
6:35 PM,27.7,22.6,81,30.06,10.0,SSW,10.4,-,N/A,,Overcast,210,2012-12-30 23:35:00
6:55 PM,27.5,23.0,83,30.05,10.0,SSW,10.4,-,N/A,,Overcast,210,2012-12-30 23:55:00
7:16 PM,27.5,23.0,83,30.05,10.0,SSW,9.2,-,N/A,,Overcast,210,2012-12-31 00:16:00
7:35 PM,27.5,22.5,81,30.04,10.0,SSW,9.2,17.3,N/A,,Overcast,200,2012-12-31 00:35:00
7:55 PM,27.5,22.5,81,30.05,10.0,SW,8.1,-,N/A,,Overcast,220,2012-12-31 00:55:00
8:15 PM,27.3,22.3,81,30.04,10.0,SW,6.9,-,N/A,,Overcast,220,2012-12-31 01:15:00
8:35 PM,27.1,22.6,83,30.04,10.0,SSW,9.2,-,N/A,,Overcast,210,2012-12-31 01:35:00
8:55 PM,26.8,22.3,83,30.04,10.0,SSW,9.2,16.1,N/A,,Overcast,210,2012-12-31 01:55:00
9:15 PM,26.4,21.9,83,30.03,10.0,SSW,11.5,17.3,N/A,,Overcast,200,2012-12-31 02:15:00
9:35 PM,26.2,21.6,82,30.03,10.0,SSW,12.7,19.6,N/A,,Overcast,200,2012-12-31 02:35:00
9:56 PM,25.7,21.2,83,30.02,10.0,SSW,13.8,19.6,N/A,,Overcast,200,2012-12-31 02:56:00
10:15 PM,25.7,21.2,83,30.01,10.0,SSW,11.5,-,N/A,,Overcast,200,2012-12-31 03:15:00
10:56 PM,26.4,22.6,86,29.99,10.0,SSW,10.4,-,N/A,,Overcast,200,2012-12-31 03:56:00
11:15 PM,26.4,23.0,87,29.98,10.0,SSW,11.5,-,N/A,,Overcast,200,2012-12-31 04:15:00
11:35 PM,26.6,23.5,88,29.97,10.0,SSW,6.9,-,N/A,,Overcast,210,2012-12-31 04:35:00
11:56 PM,27.0,24.1,89,29.96,10.0,South,5.8,-,N/A,,Overcast,190,2012-12-31 04:56:00